createdAt,value
2022-12-08T00:01:18.497Z,3.73
2022-12-08T00:03:46.514Z,3.90
2022-12-08T00:06:43.166Z,3.33
2022-12-08T00:09:24.759Z,3.90
2022-12-08T00:11:59.713Z,3.70
2022-12-08T00:14:29.562Z,3.77
2022-12-08T00:16:57.850Z,3.37
2022-12-08T00:19:26.347Z,3.67
2022-12-08T00:21:54.497Z,3.87
2022-12-08T00:24:23.262Z,4.30
2022-12-08T00:26:51.054Z,8.43
2022-12-08T00:29:19.347Z,7.13
2022-12-08T00:31:47.108Z,7.67
2022-12-08T00:34:15.643Z,3.30
2022-12-08T00:36:43.658Z,4.17
2022-12-08T00:39:12.379Z,3.80
2022-12-08T00:41:59.063Z,3.23
2022-12-08T00:44:27.056Z,3.67
2022-12-08T00:46:54.614Z,4.00
2022-12-08T00:49:22.784Z,3.43
2022-12-08T00:51:50.685Z,3.40
2022-12-08T00:54:19.131Z,3.77
2022-12-08T00:56:46.832Z,2.90
2022-12-08T00:59:14.755Z,3.60
2022-12-08T01:01:44.279Z,2.50
2022-12-08T01:04:15.436Z,3.13
2022-12-08T01:06:43.481Z,3.27
2022-12-08T01:09:18.046Z,3.17
2022-12-08T01:11:46.463Z,3.57
2022-12-08T01:14:14.787Z,3.73
2022-12-08T01:16:42.896Z,3.97
2022-12-08T01:19:12.140Z,4.50
2022-12-08T01:21:40.499Z,4.63
2022-12-08T01:24:08.594Z,3.50
2022-12-08T01:26:36.090Z,4.10
2022-12-08T01:29:03.984Z,4.50
2022-12-08T01:31:31.555Z,3.73
2022-12-08T01:33:59.511Z,4.60
2022-12-08T01:36:31.286Z,3.30
2022-12-08T01:39:00.279Z,4.10
2022-12-08T01:41:29.482Z,4.27
2022-12-08T01:44:05.403Z,3.57
2022-12-08T01:46:33.670Z,3.50
2022-12-08T01:49:07.618Z,3.00
2022-12-08T01:51:36.998Z,3.80
2022-12-08T01:54:06.358Z,4.20
2022-12-08T01:56:41.463Z,5.07
2022-12-08T01:59:11.963Z,6.40
2022-12-08T02:01:39.610Z,4.60
2022-12-08T02:04:07.581Z,5.40
2022-12-08T02:06:36.990Z,4.37
2022-12-08T02:09:06.314Z,4.40
2022-12-08T02:11:33.857Z,4.97
2022-12-08T02:14:02.798Z,9.87
2022-12-08T02:16:33.553Z,4.30
2022-12-08T02:19:30.431Z,4.63
2022-12-08T02:22:01.487Z,3.80
2022-12-08T02:24:39.420Z,3.60
2022-12-08T02:27:13.089Z,3.70
2022-12-08T02:29:47.100Z,5.43
2022-12-08T02:32:23.553Z,4.10
2022-12-08T02:35:05.938Z,4.80
2022-12-08T02:40:10.098Z,10.17
2022-12-08T02:42:40.775Z,12.60
2022-12-08T02:45:17.999Z,11.20
2022-12-08T02:47:45.852Z,6.93
2022-12-08T02:50:13.779Z,10.67
2022-12-08T02:52:42.857Z,8.17
2022-12-08T02:55:15.313Z,4.03
2022-12-08T02:57:54.640Z,4.20
2022-12-08T03:00:24.084Z,4.83
2022-12-08T03:02:51.574Z,4.20
2022-12-08T03:05:31.631Z,3.90
2022-12-08T03:07:59.156Z,3.97
2022-12-08T03:10:34.052Z,4.23
2022-12-08T03:13:05.461Z,4.33
2022-12-08T03:15:33.648Z,4.38
2022-12-08T03:18:01.248Z,5.03
2022-12-08T03:20:31.170Z,3.97
2022-12-08T03:23:00.603Z,4.30
2022-12-08T03:25:31.245Z,4.63
2022-12-08T03:27:59.786Z,4.47
2022-12-08T03:30:29.413Z,4.67
2022-12-08T03:33:00.875Z,4.63
2022-12-08T03:35:30.413Z,4.30
2022-12-08T03:38:02.728Z,4.77
2022-12-08T03:40:30.545Z,4.70
2022-12-08T03:42:58.116Z,4.63
2022-12-08T03:45:26.306Z,4.27
2022-12-08T03:47:53.804Z,4.23
2022-12-08T03:50:21.790Z,4.20
2022-12-08T03:52:49.314Z,4.60
2022-12-08T03:55:17.519Z,4.57
2022-12-08T03:57:45.083Z,4.47
2022-12-08T04:00:15.471Z,4.70
2022-12-08T04:02:43.313Z,4.77
2022-12-08T04:05:11.308Z,4.90
2022-12-08T04:07:38.883Z,5.50
2022-12-08T04:10:07.477Z,5.20
2022-12-08T04:12:35.215Z,16.87
2022-12-08T04:15:03.021Z,9.17
2022-12-08T04:17:30.745Z,33.00
2022-12-08T04:19:58.640Z,23.10
2022-12-08T04:22:26.148Z,26.27
2022-12-08T04:24:54.126Z,44.00
2022-12-08T04:27:21.674Z,46.47
2022-12-08T04:29:49.541Z,7.47
2022-12-08T04:32:17.150Z,10.23
2022-12-08T04:34:46.353Z,5.10
2022-12-08T04:37:13.813Z,4.73
2022-12-08T04:39:41.582Z,4.30
2022-12-08T04:42:09.133Z,7.17
2022-12-08T04:44:36.987Z,13.37
2022-12-08T04:47:04.656Z,10.60
2022-12-08T04:49:32.547Z,13.77
2022-12-08T04:52:00.097Z,15.77
2022-12-08T04:54:28.267Z,16.63
2022-12-08T04:56:55.761Z,12.43
2022-12-08T04:59:23.596Z,8.03
2022-12-08T05:01:51.329Z,9.00
2022-12-08T05:04:19.246Z,7.70
2022-12-08T05:06:46.774Z,5.53
2022-12-08T05:09:14.676Z,6.00
2022-12-08T05:11:48.414Z,6.20
2022-12-08T05:14:17.625Z,5.70
2022-12-08T05:16:45.575Z,5.77
2022-12-08T05:19:13.682Z,5.17
2022-12-08T05:21:41.487Z,6.00
2022-12-08T05:24:09.345Z,5.57
2022-12-08T05:26:37.044Z,5.63
2022-12-08T05:29:04.897Z,5.50
2022-12-08T05:31:32.792Z,8.63
2022-12-08T05:34:03.160Z,6.60
2022-12-08T05:36:31.127Z,6.13
2022-12-08T05:38:59.147Z,9.23
2022-12-08T05:41:26.635Z,7.80
2022-12-08T05:43:54.505Z,7.50
2022-12-08T05:46:22.125Z,7.97
2022-12-08T05:48:49.917Z,5.53
2022-12-08T05:51:19.674Z,6.87
2022-12-08T05:53:48.606Z,7.23
2022-12-08T05:56:16.201Z,6.60
2022-12-08T05:58:44.270Z,4.63
2022-12-08T06:01:25.008Z,6.40
2022-12-08T06:03:53.128Z,5.33
2022-12-08T06:06:21.177Z,5.87
2022-12-08T06:08:49.348Z,6.50
2022-12-08T06:11:24.703Z,7.27
2022-12-08T06:13:52.887Z,9.20
2022-12-08T06:16:20.543Z,8.13
2022-12-08T06:18:48.561Z,7.43
2022-12-08T06:21:16.755Z,7.03
2022-12-08T06:23:44.991Z,7.00
2022-12-08T06:26:13.954Z,5.70
2022-12-08T06:28:42.086Z,6.93
2022-12-08T06:31:11.032Z,9.30
2022-12-08T06:33:39.219Z,7.30
2022-12-08T06:36:07.210Z,11.60
2022-12-08T06:38:39.335Z,10.03
2022-12-08T06:41:10.746Z,9.87
2022-12-08T06:43:39.068Z,7.17
2022-12-08T06:46:07.763Z,5.90
2022-12-08T06:48:36.808Z,7.67
2022-12-08T06:51:11.839Z,9.57
2022-12-08T06:53:40.189Z,8.37
2022-12-08T06:56:07.991Z,8.53
2022-12-08T06:58:56.661Z,9.40
2022-12-08T07:01:24.331Z,8.20
2022-12-08T07:03:52.205Z,7.90
2022-12-08T07:06:21.786Z,7.33
2022-12-08T07:08:49.564Z,7.50
2022-12-08T07:11:21.411Z,7.80
2022-12-08T07:13:50.808Z,7.97
2022-12-08T07:16:18.410Z,8.70
2022-12-08T07:18:46.310Z,6.67
2022-12-08T07:21:17.060Z,8.23
2022-12-08T07:23:52.710Z,7.25
2022-12-08T07:26:24.816Z,10.03
2022-12-08T07:28:52.625Z,9.90
2022-12-08T07:31:21.608Z,11.63
2022-12-08T07:33:50.296Z,6.27
2022-12-08T07:36:17.904Z,9.90
2022-12-08T07:38:45.748Z,14.30
2022-12-08T07:41:16.865Z,10.47
2022-12-08T07:43:45.160Z,9.15
2022-12-08T07:46:13.512Z,8.47
2022-12-08T07:48:41.720Z,8.68
2022-12-08T07:51:09.298Z,8.63
2022-12-08T07:53:43.101Z,7.77
2022-12-08T07:56:13.220Z,8.75
2022-12-08T07:58:42.879Z,8.40
2022-12-08T08:01:21.214Z,8.10
2022-12-08T08:03:49.356Z,8.13
2022-12-08T08:06:17.130Z,9.27
2022-12-08T08:08:45.008Z,9.15
2022-12-08T08:11:18.908Z,9.23
2022-12-08T08:13:49.591Z,7.45
2022-12-08T08:16:17.620Z,8.00
2022-12-08T08:18:47.070Z,8.60
2022-12-08T08:21:45.054Z,7.25
2022-12-08T08:24:02.437Z,7.32
2022-12-08T08:26:29.930Z,7.88
2022-12-08T08:28:57.790Z,6.70
2022-12-08T08:31:26.962Z,7.25
2022-12-08T08:33:55.150Z,7.32
2022-12-08T08:36:22.692Z,7.05
2022-12-08T08:38:50.556Z,7.85
2022-12-08T08:41:18.149Z,7.72
2022-12-08T08:43:45.939Z,7.38
2022-12-08T08:46:13.565Z,6.10
2022-12-08T08:48:43.736Z,6.40
2022-12-08T08:51:12.036Z,7.63
2022-12-08T08:53:41.670Z,7.15
2022-12-08T08:56:19.260Z,6.57
2022-12-08T08:58:50.858Z,7.30
2022-12-08T09:01:21.030Z,7.57
2022-12-08T09:03:49.384Z,7.78
2022-12-08T09:06:17.067Z,10.30
2022-12-08T09:08:46.714Z,5.38
2022-12-08T09:11:14.615Z,7.28
2022-12-08T09:13:43.567Z,7.78
2022-12-08T09:16:30.797Z,6.70
2022-12-08T09:18:58.659Z,8.25
2022-12-08T09:21:27.162Z,7.93
2022-12-08T09:23:56.533Z,7.30
2022-12-08T09:26:24.285Z,7.57
2022-12-08T09:28:52.779Z,6.90
2022-12-08T09:31:21.469Z,7.93
2022-12-08T09:33:53.509Z,6.38
2022-12-08T09:36:21.354Z,8.57
2022-12-08T09:38:50.316Z,6.80
2022-12-08T09:41:43.460Z,7.28
2022-12-08T09:44:23.394Z,7.45
2022-12-08T09:46:52.742Z,7.10
2022-12-08T09:49:23.311Z,7.28
2022-12-08T09:51:50.848Z,7.22
2022-12-08T09:54:36.418Z,7.25
2022-12-08T09:57:07.423Z,5.90
2022-12-08T09:59:35.831Z,5.18
2022-12-08T10:02:04.409Z,6.68
2022-12-08T10:04:34.483Z,5.53
2022-12-08T10:07:25.475Z,6.27
2022-12-08T10:09:59.684Z,5.73
2022-12-08T10:12:31.842Z,8.45
2022-12-08T10:15:08.114Z,7.10
2022-12-08T10:17:42.126Z,7.23
2022-12-08T10:20:13.852Z,8.20
2022-12-08T10:22:44.647Z,7.10
2022-12-08T10:25:17.700Z,9.00
2022-12-08T10:27:47.057Z,8.53
2022-12-08T10:30:15.986Z,8.43
2022-12-08T10:32:46.020Z,12.80
2022-12-08T10:35:15.019Z,29.05
2022-12-08T10:37:55.170Z,26.37
2022-12-08T10:40:23.079Z,17.23
2022-12-08T10:42:56.169Z,11.57
2022-12-08T10:45:38.366Z,10.80
2022-12-08T10:48:26.193Z,9.13
2022-12-08T10:50:54.080Z,8.80
2022-12-08T10:53:31.952Z,10.00
2022-12-08T10:56:02.847Z,9.33
2022-12-08T10:58:36.856Z,8.82
2022-12-08T11:01:17.965Z,8.30
2022-12-08T11:03:49.656Z,9.98
2022-12-08T11:06:19.394Z,10.50
2022-12-08T11:08:49.793Z,11.93
2022-12-08T11:11:24.328Z,8.50
2022-12-08T11:13:55.169Z,10.07
2022-12-08T11:16:23.693Z,9.90
2022-12-08T11:18:56.784Z,6.65
2022-12-08T11:21:32.115Z,7.68
2022-12-08T11:23:59.636Z,8.50
2022-12-08T11:26:30.789Z,8.27
2022-12-08T11:28:58.789Z,9.55
2022-12-08T11:31:31.793Z,8.55
2022-12-08T11:33:59.479Z,9.50
2022-12-08T11:36:29.487Z,11.32
2022-12-08T11:38:58.778Z,11.43
2022-12-08T11:41:30.174Z,10.43
2022-12-08T11:44:13.982Z,12.73
2022-12-08T11:46:46.928Z,11.95
2022-12-08T11:49:15.240Z,10.88
2022-12-08T11:52:00.555Z,10.55
2022-12-08T11:54:32.848Z,11.30
2022-12-08T11:57:05.702Z,10.35
2022-12-08T11:59:35.423Z,9.07
2022-12-08T12:02:03.789Z,12.90
2022-12-08T12:04:36.141Z,12.30
2022-12-08T12:07:07.040Z,11.68
2022-12-08T12:09:44.010Z,8.32
2022-12-08T12:12:32.643Z,9.23
2022-12-08T12:15:13.036Z,9.15
2022-12-08T12:17:40.914Z,10.48
2022-12-08T12:20:20.686Z,7.80
2022-12-08T12:22:50.893Z,9.75
2022-12-08T12:25:23.686Z,13.15
2022-12-08T12:27:57.184Z,8.35
2022-12-08T12:30:26.972Z,11.27
2022-12-08T12:32:57.363Z,11.07
2022-12-08T12:35:36.109Z,9.75
2022-12-08T12:38:28.812Z,15.40
2022-12-08T12:41:01.039Z,9.30
2022-12-08T12:43:31.286Z,10.27
2022-12-08T12:46:19.046Z,7.20
2022-12-08T12:48:46.828Z,11.68
2022-12-08T12:51:44.047Z,9.98
2022-12-08T12:54:22.718Z,8.30
2022-12-08T12:56:52.179Z,6.70
2022-12-08T12:59:32.122Z,16.73
2022-12-08T13:02:02.468Z,14.63
2022-12-08T13:04:35.648Z,16.93
2022-12-08T13:07:03.504Z,16.00
2022-12-08T13:09:33.546Z,19.20
2022-12-08T13:12:03.194Z,23.13
2022-12-08T13:14:35.612Z,29.80
2022-12-08T13:17:06.061Z,41.97
2022-12-08T13:19:36.637Z,41.35
2022-12-08T13:22:04.273Z,28.90
2022-12-08T13:24:33.745Z,49.95
2022-12-08T13:27:04.204Z,41.83
2022-12-08T13:29:33.030Z,32.38
2022-12-08T13:32:01.331Z,17.75
2022-12-08T13:34:49.624Z,9.75
2022-12-08T13:37:20.078Z,18.50
2022-12-08T13:39:50.649Z,15.45
2022-12-08T13:42:25.273Z,12.93
2022-12-08T13:48:23.571Z,38.30
2022-12-08T13:57:08.343Z,60.03
2022-12-08T13:59:43.628Z,72.22
2022-12-08T14:02:17.324Z,60.55
2022-12-08T14:05:16.754Z,59.00
2022-12-08T14:07:35.404Z,49.40
2022-12-08T14:10:03.794Z,43.42
2022-12-08T14:12:32.315Z,46.13
2022-12-08T14:15:07.321Z,17.80
2022-12-08T14:17:35.264Z,32.78
2022-12-08T14:20:19.754Z,32.77
2022-12-08T14:22:50.354Z,27.95
2022-12-08T14:25:19.426Z,29.90
2022-12-08T14:27:47.732Z,28.23
2022-12-08T14:30:15.385Z,22.53
2022-12-08T14:32:50.060Z,18.53
2022-12-08T14:35:24.397Z,12.80
2022-12-08T14:37:55.194Z,9.07
2022-12-08T14:40:24.668Z,23.13
2022-12-08T14:43:06.825Z,18.27
2022-12-08T14:45:35.273Z,7.40
2022-12-08T14:48:21.287Z,7.82
2022-12-08T14:50:57.671Z,6.77
2022-12-08T14:53:26.060Z,6.35
2022-12-08T14:55:53.646Z,7.20
2022-12-08T14:58:24.656Z,8.23
2022-12-08T15:00:54.541Z,10.90
2022-12-08T15:03:22.769Z,41.00
2022-12-08T15:05:54.449Z,66.88
2022-12-08T15:11:10.053Z,6.25
2022-12-08T15:13:44.424Z,7.47
2022-12-08T15:16:26.293Z,7.50
2022-12-08T15:19:16.262Z,7.17
2022-12-08T15:21:45.125Z,10.13
2022-12-08T15:24:13.531Z,7.07
2022-12-08T15:26:48.806Z,7.00
2022-12-08T15:29:20.064Z,6.80
2022-12-08T15:31:47.958Z,7.63
2022-12-08T15:34:15.891Z,5.27
2022-12-08T15:36:43.491Z,7.03
2022-12-08T15:39:32.835Z,7.05
2022-12-08T15:42:00.590Z,8.70
2022-12-08T15:44:29.443Z,13.50
2022-12-08T15:46:57.212Z,6.87
2022-12-08T15:49:25.725Z,8.93
2022-12-08T15:52:01.923Z,7.20
2022-12-08T15:54:38.532Z,8.93
2022-12-08T15:57:40.283Z,6.20
2022-12-08T15:59:53.941Z,28.43
2022-12-08T16:02:23.092Z,17.43
2022-12-08T16:07:40.758Z,8.07
2022-12-08T16:10:09.353Z,7.70
2022-12-08T16:15:53.588Z,7.87
2022-12-08T16:18:27.059Z,10.13
2022-12-08T16:23:45.275Z,7.97
2022-12-08T16:26:44.269Z,6.30
2022-12-08T16:29:06.030Z,9.33
2022-12-08T16:31:35.572Z,8.17
2022-12-08T16:34:03.181Z,7.70
2022-12-08T16:36:31.103Z,5.37
2022-12-08T16:38:58.744Z,7.23
2022-12-08T16:41:45.349Z,5.77
2022-12-08T16:44:31.472Z,8.83
2022-12-08T16:46:59.356Z,8.23
2022-12-08T16:49:27.033Z,7.30
2022-12-08T16:51:55.073Z,9.67
2022-12-08T16:54:22.539Z,5.27
2022-12-08T16:56:50.309Z,6.70
2022-12-08T16:59:17.792Z,7.37
2022-12-08T17:01:45.652Z,8.60
2022-12-08T17:04:31.169Z,8.20
2022-12-08T17:06:59.823Z,7.90
2022-12-08T17:09:28.549Z,7.30
2022-12-08T17:12:01.908Z,6.60
2022-12-08T17:14:32.995Z,7.07
2022-12-08T17:17:00.888Z,6.83
2022-12-08T17:19:28.822Z,7.00
2022-12-08T17:21:56.776Z,9.57
2022-12-08T17:24:28.901Z,5.00
2022-12-08T17:27:04.329Z,4.70
2022-12-08T17:29:32.604Z,6.20
2022-12-08T17:32:00.529Z,6.07
2022-12-08T17:34:28.310Z,6.53
2022-12-08T17:36:56.404Z,7.57
2022-12-08T17:39:23.985Z,6.80
2022-12-08T17:41:51.769Z,5.40
2022-12-08T17:44:19.831Z,6.47
2022-12-08T17:46:52.717Z,5.57
2022-12-08T17:49:22.437Z,5.60
2022-12-08T17:51:51.252Z,6.43
2022-12-08T17:54:19.064Z,7.70
2022-12-08T17:56:46.957Z,7.80
2022-12-08T17:59:16.592Z,6.70
2022-12-08T18:01:44.520Z,7.97
2022-12-08T18:04:15.276Z,8.87
2022-12-08T18:06:43.994Z,15.15
2022-12-08T18:09:11.623Z,12.45
2022-12-08T18:11:41.294Z,12.27
2022-12-08T18:14:10.146Z,8.90
2022-12-08T18:16:42.047Z,8.27
2022-12-08T18:19:12.045Z,10.98
2022-12-08T18:21:43.369Z,8.95
2022-12-08T18:24:37.297Z,7.93
2022-12-08T18:27:05.781Z,8.97
2022-12-08T18:29:33.495Z,15.63
2022-12-08T18:32:01.610Z,6.10
2022-12-08T18:34:29.110Z,5.70
2022-12-08T18:36:56.895Z,6.43
2022-12-08T18:39:25.734Z,7.47
2022-12-08T18:41:53.887Z,4.83
2022-12-08T18:44:21.537Z,5.15
2022-12-08T18:46:49.363Z,6.60
2022-12-08T18:49:38.204Z,8.20
2022-12-08T18:52:06.082Z,7.10
2022-12-08T18:54:58.210Z,8.23
2022-12-08T18:57:21.771Z,5.47
2022-12-08T18:59:49.382Z,11.00
2022-12-08T19:02:18.424Z,11.83
2022-12-08T19:04:46.295Z,4.80
2022-12-08T19:07:16.992Z,4.77
2022-12-08T19:09:44.540Z,4.22
2022-12-08T19:12:13.124Z,5.37
2022-12-08T19:14:41.442Z,5.77
2022-12-08T19:17:09.461Z,4.90
2022-12-08T19:19:37.037Z,5.40
2022-12-08T19:22:05.574Z,5.20
2022-12-08T19:24:34.835Z,6.53
2022-12-08T19:27:03.540Z,4.80
2022-12-08T19:29:31.384Z,5.83
2022-12-08T19:32:00.296Z,5.17
2022-12-08T19:34:28.093Z,3.77
2022-12-08T19:36:55.919Z,6.00
2022-12-08T19:40:00.685Z,6.43
2022-12-08T19:42:47.116Z,4.77
2022-12-08T19:45:17.346Z,4.43
2022-12-08T19:47:45.520Z,4.70
2022-12-08T19:50:32.232Z,4.90
2022-12-08T19:53:00.317Z,5.57
2022-12-08T19:55:28.115Z,6.70
2022-12-08T19:57:57.092Z,6.07
2022-12-08T20:00:24.963Z,8.88
2022-12-08T20:02:53.258Z,16.17
2022-12-08T20:05:21.222Z,17.00
2022-12-08T20:07:49.375Z,13.10
2022-12-08T20:10:18.544Z,10.07
2022-12-08T20:12:46.383Z,11.90
2022-12-08T20:15:14.874Z,12.00
2022-12-08T20:17:43.448Z,11.27
2022-12-08T20:20:13.034Z,7.70
2022-12-08T20:22:41.425Z,6.43
2022-12-08T20:25:12.767Z,6.63
2022-12-08T20:27:41.780Z,5.82
2022-12-08T20:30:15.047Z,9.40
2022-12-08T20:32:45.070Z,7.82
2022-12-08T20:35:13.121Z,6.35
2022-12-08T20:37:41.042Z,6.88
2022-12-08T20:40:08.968Z,7.47
2022-12-08T20:42:36.850Z,7.38
2022-12-08T20:45:06.667Z,7.07
2022-12-08T20:47:34.892Z,6.28
2022-12-08T20:50:03.323Z,3.92
2022-12-08T20:52:31.533Z,5.20
2022-12-08T20:54:59.383Z,4.87
2022-12-08T20:57:27.273Z,5.13
2022-12-08T20:59:55.264Z,4.67
2022-12-08T21:02:23.276Z,4.47
2022-12-08T21:04:51.420Z,4.20
2022-12-08T21:07:19.410Z,4.30
2022-12-08T21:09:47.033Z,3.75
2022-12-08T21:12:15.152Z,3.80
2022-12-08T21:14:42.731Z,3.83
2022-12-08T21:17:10.619Z,4.20
2022-12-08T21:19:38.295Z,4.40
2022-12-08T21:22:06.198Z,3.88
2022-12-08T21:24:34.745Z,4.28
2022-12-08T21:27:02.913Z,5.30
2022-12-08T21:29:30.460Z,5.23
2022-12-08T21:32:00.189Z,4.63
2022-12-08T21:34:31.847Z,5.00
2022-12-08T21:39:27.898Z,4.30
2022-12-08T21:42:15.932Z,4.13
2022-12-08T21:44:43.839Z,3.90
2022-12-08T21:47:11.901Z,4.80
2022-12-08T21:49:39.757Z,4.10
2022-12-08T21:52:07.599Z,3.87
2022-12-08T21:54:35.231Z,4.37
2022-12-08T21:57:03.087Z,5.10
2022-12-08T21:59:50.068Z,8.50
2022-12-08T22:02:22.221Z,9.50
2022-12-08T22:04:52.491Z,13.00
2022-12-08T22:07:21.339Z,5.23
2022-12-08T22:09:49.392Z,9.73
2022-12-08T22:12:17.637Z,16.07
2022-12-08T22:14:45.374Z,21.33
2022-12-08T22:17:13.432Z,6.03
2022-12-08T22:19:41.079Z,10.00
2022-12-08T22:22:09.090Z,6.00
2022-12-08T22:24:36.679Z,6.50
2022-12-08T22:27:04.779Z,6.75
2022-12-08T22:29:34.350Z,5.93
2022-12-08T22:32:02.228Z,6.85
2022-12-08T22:34:31.110Z,7.70
2022-12-08T22:37:18.755Z,10.23
2022-12-08T22:39:46.385Z,15.97
2022-12-08T22:42:15.101Z,17.23
2022-12-08T22:44:43.982Z,10.63
2022-12-08T22:47:12.059Z,7.47
2022-12-08T22:49:39.896Z,6.70
2022-12-08T22:52:07.970Z,10.07
2022-12-08T22:54:35.661Z,6.87
2022-12-08T22:57:03.806Z,5.88
2022-12-08T23:02:19.680Z,5.60
2022-12-08T23:04:47.514Z,4.37
2022-12-08T23:07:17.264Z,5.43
2022-12-08T23:09:44.995Z,4.80
2022-12-08T23:12:12.844Z,4.30
2022-12-08T23:14:40.434Z,4.50
2022-12-08T23:17:08.368Z,5.70
2022-12-08T23:19:37.497Z,4.83
2022-12-08T23:22:05.811Z,5.63
2022-12-08T23:24:33.545Z,5.90
2022-12-08T23:27:01.659Z,5.13
2022-12-08T23:29:29.238Z,6.17
2022-12-08T23:31:57.443Z,4.22
2022-12-08T23:34:25.054Z,4.32
2022-12-08T23:36:52.984Z,3.60
2022-12-08T23:39:24.136Z,3.97
2022-12-08T23:41:52.312Z,5.35
2022-12-08T23:44:20.236Z,5.80
2022-12-08T23:46:48.508Z,6.60
2022-12-08T23:49:16.173Z,9.27
2022-12-08T23:51:44.147Z,7.50
2022-12-08T23:54:11.720Z,10.37
2022-12-08T23:56:39.765Z,10.20
2022-12-08T23:59:07.277Z,7.20
